createdAt,value
2023-03-27T00:01:17.729Z,61.77
2023-03-27T00:06:21.916Z,61.94
2023-03-27T00:11:26.575Z,62.02
2023-03-27T00:16:30.483Z,62.21
2023-03-27T00:21:34.168Z,62.33
2023-03-27T00:26:40.463Z,62.41
2023-03-27T00:31:43.398Z,62.53
2023-03-27T00:36:50.982Z,62.67
2023-03-27T00:46:58.653Z,63.02
2023-03-27T00:52:04.116Z,62.98
2023-03-27T00:57:13.695Z,63.03
2023-03-27T01:02:18.234Z,63.22
2023-03-27T01:07:22.618Z,63.45
2023-03-27T01:12:38.819Z,63.56
2023-03-27T01:17:58.664Z,63.58
2023-03-27T01:23:59.118Z,63.66
2023-03-27T01:29:11.487Z,63.82
2023-03-27T01:34:42.651Z,63.92
2023-03-27T01:39:57.701Z,64.18
2023-03-27T01:45:06.811Z,64.40
2023-03-27T01:50:18.280Z,64.42
2023-03-27T01:55:27.641Z,64.40
2023-03-27T02:00:51.128Z,64.71
2023-03-27T02:06:00.148Z,64.77
2023-03-27T02:11:05.570Z,64.90
2023-03-27T02:16:12.389Z,65.01
2023-03-27T02:21:15.623Z,65.22
2023-03-27T02:26:21.348Z,65.31
2023-03-27T02:31:38.401Z,65.35
2023-03-27T02:36:48.326Z,65.44
2023-03-27T02:41:58.119Z,65.52
2023-03-27T02:47:19.272Z,65.66
2023-03-27T02:52:34.728Z,65.59
2023-03-27T02:57:40.011Z,65.79
2023-03-27T03:03:08.119Z,65.84
2023-03-27T03:08:11.715Z,65.85
2023-03-27T03:13:16.050Z,66.08
2023-03-27T03:18:20.046Z,65.97
2023-03-27T03:23:24.108Z,66.32
2023-03-27T03:28:29.126Z,66.41
2023-03-27T03:33:32.934Z,66.04
2023-03-27T03:38:38.108Z,65.82
2023-03-27T03:43:47.035Z,65.81
2023-03-27T03:48:49.910Z,65.51
2023-03-27T03:53:52.708Z,65.66
2023-03-27T03:58:57.232Z,65.46
2023-03-27T04:03:59.991Z,65.38
2023-03-27T04:09:08.806Z,65.21
2023-03-27T04:14:29.871Z,65.02
2023-03-27T04:19:35.844Z,65.16
2023-03-27T04:24:44.677Z,65.06
2023-03-27T04:29:51.031Z,65.10
2023-03-27T04:35:25.833Z,65.07
2023-03-27T04:40:38.235Z,64.98
2023-03-27T04:45:44.678Z,65.01
2023-03-27T04:50:49.765Z,64.94
2023-03-27T04:56:06.135Z,64.79
2023-03-27T05:01:14.357Z,64.92
2023-03-27T05:06:23.412Z,65.00
2023-03-27T05:11:26.958Z,64.99
2023-03-27T05:16:31.389Z,64.94
2023-03-27T05:21:37.589Z,65.16
2023-03-27T05:26:44.177Z,65.10
2023-03-27T05:31:49.082Z,65.04
2023-03-27T05:37:16.427Z,65.16
2023-03-27T05:42:43.379Z,65.01
2023-03-27T05:47:49.643Z,65.03
2023-03-27T05:52:56.034Z,65.02
2023-03-27T05:58:05.998Z,65.03
2023-03-27T06:03:12.491Z,65.03
2023-03-27T06:08:47.617Z,64.97
2023-03-27T06:13:50.866Z,64.97
2023-03-27T06:18:59.494Z,64.89
2023-03-27T06:24:04.036Z,64.60
2023-03-27T06:29:08.057Z,64.04
2023-03-27T06:34:15.186Z,63.77
2023-03-27T06:39:24.673Z,63.46
2023-03-27T06:44:28.806Z,63.18
2023-03-27T06:49:47.636Z,62.98
2023-03-27T06:54:55.188Z,62.87
2023-03-27T07:00:00.879Z,63.02
2023-03-27T07:05:26.433Z,63.01
2023-03-27T07:10:29.561Z,63.15
2023-03-27T07:15:32.808Z,63.05
2023-03-27T07:20:37.064Z,63.00
2023-03-27T07:25:46.320Z,63.01
2023-03-27T07:30:58.676Z,62.81
2023-03-27T07:36:07.681Z,62.93
2023-03-27T07:41:20.997Z,62.92
2023-03-27T07:46:36.048Z,63.06
2023-03-27T07:51:41.172Z,62.84
2023-03-27T07:56:44.567Z,63.02
2023-03-27T08:02:07.500Z,63.05
2023-03-27T08:07:15.450Z,63.08
2023-03-27T08:12:19.637Z,62.93
2023-03-27T08:17:33.826Z,63.01
2023-03-27T08:22:39.456Z,63.08
2023-03-27T08:28:03.284Z,63.15
2023-03-27T08:33:09.766Z,62.91
2023-03-27T08:38:25.740Z,62.96
2023-03-27T08:44:04.071Z,62.98
2023-03-27T08:49:12.570Z,61.98
2023-03-27T08:54:21.443Z,61.16
2023-03-27T08:59:27.983Z,60.94
2023-03-27T09:04:41.092Z,60.08
2023-03-27T09:09:55.874Z,46.98
2023-03-27T09:15:05.742Z,44.08
2023-03-27T09:20:20.330Z,43.29
2023-03-27T09:25:31.467Z,42.89
2023-03-27T09:30:36.441Z,42.95
2023-03-27T09:35:59.403Z,42.72
2023-03-27T09:41:08.569Z,42.27
2023-03-27T09:46:19.337Z,43.04
2023-03-27T09:51:42.011Z,42.28
2023-03-27T09:57:12.437Z,41.61
2023-03-27T10:02:19.479Z,42.03
2023-03-27T10:07:25.798Z,43.29
2023-03-27T10:12:55.775Z,44.59
2023-03-27T10:18:21.164Z,45.95
2023-03-27T10:23:27.508Z,47.24
2023-03-27T10:28:38.838Z,48.15
2023-03-27T10:33:45.429Z,49.02
2023-03-27T10:39:15.538Z,50.22
2023-03-27T10:44:54.468Z,51.09
2023-03-27T10:50:09.279Z,52.15
2023-03-27T10:55:31.093Z,52.79
2023-03-27T11:00:39.796Z,53.76
2023-03-27T11:05:48.310Z,54.57
2023-03-27T11:11:09.640Z,55.27
2023-03-27T11:16:24.761Z,55.51
2023-03-27T11:21:51.161Z,55.53
2023-03-27T11:27:06.030Z,55.58
2023-03-27T11:32:21.389Z,55.53
2023-03-27T11:37:40.638Z,55.48
2023-03-27T11:42:46.520Z,55.90
2023-03-27T11:48:25.621Z,55.50
2023-03-27T11:53:48.214Z,55.34
2023-03-27T11:59:10.971Z,55.59
2023-03-27T12:04:41.556Z,43.65
2023-03-27T12:10:11.990Z,43.88
2023-03-27T12:15:55.996Z,46.24
2023-03-27T12:21:10.601Z,47.57
2023-03-27T12:26:35.015Z,48.51
2023-03-27T12:32:05.967Z,49.49
2023-03-27T12:37:14.233Z,50.46
2023-03-27T12:42:44.052Z,51.47
2023-03-27T12:48:17.806Z,53.09
2023-03-27T12:53:54.877Z,54.29
2023-03-27T12:58:59.816Z,54.62
2023-03-27T13:04:26.358Z,54.83
2023-03-27T13:09:54.478Z,54.54
2023-03-27T13:15:23.677Z,55.19
2023-03-27T13:20:41.111Z,55.57
2023-03-27T13:26:02.915Z,55.73
2023-03-27T13:31:14.672Z,56.27
2023-03-27T13:36:48.875Z,56.61
2023-03-27T13:42:08.089Z,57.06
2023-03-27T13:48:02.817Z,57.33
2023-03-27T13:53:33.850Z,57.36
2023-03-27T13:59:27.805Z,56.58
2023-03-27T14:05:05.682Z,55.97
2023-03-27T14:10:25.303Z,55.90
2023-03-27T14:16:04.888Z,56.42
2023-03-27T14:21:24.466Z,56.44
2023-03-27T14:26:37.878Z,55.77
2023-03-27T14:31:44.188Z,46.45
2023-03-27T14:36:56.303Z,48.03
2023-03-27T14:42:05.578Z,48.00
2023-03-27T14:47:17.715Z,49.40
2023-03-27T14:52:26.819Z,50.27
2023-03-27T14:57:50.419Z,50.62
2023-03-27T15:02:57.097Z,51.14
2023-03-27T15:08:01.242Z,51.46
2023-03-27T15:13:36.728Z,51.61
2023-03-27T15:18:56.202Z,51.49
2023-03-27T15:24:05.436Z,51.43
2023-03-27T15:29:17.938Z,46.60
2023-03-27T15:34:34.011Z,49.87
2023-03-27T15:39:39.345Z,50.63
2023-03-27T15:44:43.834Z,50.43
2023-03-27T15:49:48.070Z,50.49
2023-03-27T15:54:55.834Z,51.16
2023-03-27T16:00:08.466Z,51.52
2023-03-27T16:05:18.583Z,51.85
2023-03-27T16:10:32.660Z,52.21
2023-03-27T16:15:38.068Z,52.63
2023-03-27T16:20:42.457Z,46.69
2023-03-27T16:25:45.424Z,49.88
2023-03-27T16:30:48.894Z,51.05
2023-03-27T16:35:53.118Z,50.79
2023-03-27T16:40:55.871Z,50.56
2023-03-27T16:45:58.873Z,51.21
2023-03-27T16:51:03.107Z,52.78
2023-03-27T16:56:06.525Z,53.01
2023-03-27T17:01:10.349Z,53.10
2023-03-27T17:06:15.120Z,53.65
2023-03-27T17:11:17.891Z,53.77
2023-03-27T17:16:20.789Z,53.02
2023-03-27T17:21:26.159Z,52.70
2023-03-27T17:26:31.959Z,52.77
2023-03-27T17:31:35.359Z,52.68
2023-03-27T17:36:45.207Z,52.68
2023-03-27T17:41:50.856Z,52.66
2023-03-27T17:46:53.789Z,52.81
2023-03-27T17:51:58.147Z,52.99
2023-03-27T17:57:01.267Z,53.10
2023-03-27T18:02:04.161Z,53.07
2023-03-27T18:07:08.495Z,53.04
2023-03-27T18:12:11.723Z,53.17
2023-03-27T18:17:15.769Z,53.18
2023-03-27T18:22:19.897Z,53.25
2023-03-27T18:27:22.643Z,53.37
2023-03-27T18:32:26.170Z,53.35
2023-03-27T18:37:30.292Z,53.37
2023-03-27T18:42:33.032Z,53.27
2023-03-27T18:47:37.025Z,53.46
2023-03-27T18:52:41.630Z,53.54
2023-03-27T18:57:45.231Z,53.59
2023-03-27T19:02:48.842Z,53.53
2023-03-27T19:07:57.559Z,53.46
2023-03-27T19:13:01.841Z,53.63
2023-03-27T19:18:28.310Z,53.52
2023-03-27T19:23:55.672Z,53.71
2023-03-27T19:29:08.749Z,53.58
2023-03-27T19:34:11.690Z,53.91
2023-03-27T19:39:16.186Z,53.74
2023-03-27T19:44:21.068Z,53.73
2023-03-27T19:49:23.819Z,53.76
2023-03-27T19:54:54.969Z,53.73
2023-03-27T19:59:59.562Z,53.87
2023-03-27T20:05:02.375Z,53.95
2023-03-27T20:10:07.337Z,53.81
2023-03-27T20:15:12.435Z,53.91
2023-03-27T20:20:19.737Z,53.95
2023-03-27T20:25:24.079Z,53.82
2023-03-27T20:30:27.521Z,53.70
2023-03-27T20:35:31.836Z,53.64
2023-03-27T20:40:52.772Z,53.63
2023-03-27T20:45:59.950Z,53.36
2023-03-27T20:51:06.897Z,53.32
2023-03-27T20:56:14.135Z,53.33
2023-03-27T21:01:19.424Z,53.07
2023-03-27T21:06:22.332Z,53.00
2023-03-27T21:11:26.599Z,53.09
2023-03-27T21:16:29.788Z,52.90
2023-03-27T21:21:33.157Z,52.64
2023-03-27T21:26:37.369Z,52.75
2023-03-27T21:31:41.192Z,52.62
2023-03-27T21:36:44.126Z,52.68
2023-03-27T21:41:48.315Z,52.65
2023-03-27T21:46:51.116Z,52.62
2023-03-27T21:51:54.035Z,52.69
2023-03-27T21:56:58.145Z,52.84
2023-03-27T22:02:01.642Z,52.74
2023-03-27T22:07:04.517Z,52.77
2023-03-27T22:12:09.256Z,52.93
2023-03-27T22:17:12.032Z,53.14
2023-03-27T22:22:14.795Z,53.57
2023-03-27T22:27:18.894Z,53.67
2023-03-27T22:32:22.289Z,54.30
2023-03-27T22:37:25.134Z,54.59
2023-03-27T22:42:31.791Z,55.33
2023-03-27T22:47:35.475Z,55.66
2023-03-27T22:52:38.280Z,56.07
2023-03-27T22:57:42.478Z,56.37
2023-03-27T23:02:45.280Z,56.30
2023-03-27T23:07:48.050Z,56.62
2023-03-27T23:12:52.262Z,56.64
2023-03-27T23:17:55.402Z,57.02
2023-03-27T23:22:58.594Z,57.05
2023-03-27T23:28:02.664Z,57.47
2023-03-27T23:33:05.459Z,57.77
2023-03-27T23:38:08.163Z,57.98
2023-03-27T23:43:12.341Z,58.26
2023-03-27T23:48:15.298Z,58.46
2023-03-27T23:53:18.088Z,58.57
2023-03-27T23:58:22.204Z,58.79
